Mocanaqua, Pennsylvania
Current Conditions -  °F | °C
As of 8:35 PM on Wednesday 22 Oct 2014 (Local Time) from KHZL Reporting Station
Moderate Rain Moderate Rain  
Wind Chill:   Ceiling: 700
Heat Index:   Visibility: 5mi
Dew Point:   Wind: 13mph
Humidity: 93%   Direction: 330°NNW
Pressure: 29.97"   Gusts: 21mph
Location:  41.1968°N, 76.1956°W
Report Text: KHZL 230035Z AUTO 33011G18KT 5SM RA OVC007 08/07 A2997 RMK AO2 LTG DSNT SE
Loading
Personal Weather Stations






























Interactive Weather Map
Tropical Storm Tracking
New forecast layout! Learn more

10-Day Weather Forecast

Advertisements
Track Severe Weather on mobile